Villa Castelli, Argentina
Current Conditions -  °F | °C
As of 9:00 AM on Thursday 23 Oct 2014 (Local Time) from SCSE Reporting Station
Haze Haze  
Wind Chill: 54°   Ceiling: 600
Heat Index: 54°   Visibility: 3mi
Dew Point: 54°   Wind: 2mph
Humidity: 100%   Direction: 330°NNW
Pressure: 30.03"   Gusts: NA
Location:  29°S, 68.18°W
Report Text: SCSE 231200Z 33002KT 5000 BR OVC006 12/12 Q1017
Loading
Personal Weather Stations






























Interactive Weather Map New forecast layout! Learn more

10-Day Weather Forecast

Advertisements
Track Severe Weather on mobile